Kilmaurs, United Kingdom
Current Conditions -  °F | °C
As of 2:50 AM on Saturday 29 Nov 2014 (Local Time) from EGPK Reporting Station
Broken Clouds Broken Clouds  
Wind Chill: 50°   Ceiling: 1500
Heat Index: 50°   Visibility: 6mi
Dew Point: 46°   Wind: 2mph
Humidity: 87%   Direction: 60°ENE
Pressure: 29.83"   Gusts: NA
Location:  55.64°N, 4.53°W
Report Text: EGPK 290250Z 06002KT 9999 BKN015 10/08 Q1010
Loading
Personal Weather Stations






























Interactive Weather Map New forecast layout! Learn more

10-Day Weather Forecast

Advertisements
Track Severe Weather on mobile